Time;durP1;ratioP1;P1;durP2;ratioP2;P2;SDS_P1;SDS_P2;PMS_P1;PMS_P2;Temp;Humidity;BMP_temperature;BMP_pressure;BME280_temperature;BME280_humidity;BME280_pressure;Samples;Min_cycle;Max_cycle;Signal;HPM_P1;HPM_P2
2023/07/30 00:02:17;;;;;;;1.20;1.10;;;23.10;80.40;22.50;96107.00;;;;5063844;28;20196;-78
2023/07/30 00:04:44;;;;;;;1.57;1.47;;;23.10;80.50;22.50;96102.00;;;;5061255;28;20209;-79
2023/07/30 00:07:13;;;;;;;1.53;1.43;;;23.10;80.60;22.50;96103.00;;;;5063741;28;20275;-79
2023/07/30 00:09:40;;;;;;;1.93;1.73;;;23.00;80.80;22.50;96103.00;;;;5062480;28;20217;-80
2023/07/30 00:12:10;;;;;;;1.47;1.30;;;23.00;80.70;22.50;96110.00;;;;5063881;28;20203;-79
2023/07/30 00:14:37;;;;;;;1.40;1.30;;;23.00;80.80;22.50;96102.00;;;;5045705;28;20195;-79
2023/07/30 00:17:05;;;;;;;1.20;1.20;;;23.00;80.70;22.40;96101.00;;;;5064839;28;20240;-79
2023/07/30 00:19:33;;;;;;;1.37;1.27;;;23.00;80.60;22.40;96092.00;;;;5066254;28;20203;-79
2023/07/30 00:22:00;;;;;;;1.50;1.33;;;23.00;80.70;22.40;96099.00;;;;5065422;28;20202;-79
2023/07/30 00:24:28;;;;;;;1.70;1.27;;;22.90;80.60;22.40;96094.00;;;;5059240;28;20197;-80
2023/07/30 00:26:57;;;;;;;1.67;1.20;;;22.90;80.70;22.40;96109.00;;;;5075661;28;20231;-79
2023/07/30 00:29:24;;;;;;;1.70;1.60;;;22.90;80.50;22.30;96109.00;;;;5062811;28;20190;-79
2023/07/30 00:31:51;;;;;;;1.57;1.20;;;22.90;80.50;22.30;96106.00;;;;5071580;28;20213;-78
2023/07/30 00:34:18;;;;;;;2.10;1.00;;;22.90;80.20;22.30;96109.00;;;;5070994;28;20192;-79
2023/07/30 00:36:45;;;;;;;1.47;1.30;;;22.80;80.10;22.30;96108.00;;;;5050339;28;20228;-79
2023/07/30 00:39:12;;;;;;;1.40;1.20;;;22.80;80.10;22.20;96111.00;;;;5069155;28;20190;-79
2023/07/30 00:41:41;;;;;;;1.37;1.20;;;22.80;80.30;22.20;96116.00;;;;5071252;28;20192;-78
2023/07/30 00:44:08;;;;;;;1.20;1.20;;;22.80;80.40;22.20;96120.00;;;;5062406;28;20199;-79
2023/07/30 00:46:36;;;;;;;1.40;1.30;;;22.70;80.40;22.20;96115.00;;;;5067347;28;20245;-79
2023/07/30 00:49:04;;;;;;;1.53;1.33;;;22.70;80.40;22.20;96121.00;;;;5053443;28;20196;-79
2023/07/30 00:51:34;;;;;;;1.37;1.10;;;22.70;80.30;22.20;96128.00;;;;5067444;28;20192;-78
2023/07/30 00:54:02;;;;;;;1.20;1.10;;;22.70;80.50;22.20;96128.00;;;;5070645;28;20739;-79
2023/07/30 00:56:29;;;;;;;1.80;0.97;;;22.70;80.50;22.20;96128.00;;;;5069693;28;20216;-79
2023/07/30 00:58:58;;;;;;;1.57;1.27;;;22.70;81.30;22.20;96131.00;;;;5063120;28;20674;-79
2023/07/30 01:01:25;;;;;;;1.27;1.10;;;22.70;80.40;22.10;96137.00;;;;5069943;28;20200;-79
2023/07/30 01:03:53;;;;;;;1.20;1.10;;;22.60;80.60;22.10;96128.00;;;;5068548;28;20200;-78
2023/07/30 01:06:20;;;;;;;1.13;1.07;;;22.60;80.60;22.10;96132.00;;;;5069397;28;20216;-79
2023/07/30 01:08:49;;;;;;;1.70;1.13;;;22.60;80.80;22.10;96128.00;;;;5068359;28;20211;-79
2023/07/30 01:11:16;;;;;;;1.60;1.40;;;22.60;80.90;22.10;96123.00;;;;5054680;28;20195;-79
2023/07/30 01:13:44;;;;;;;1.90;0.90;;;22.70;81.20;22.10;96134.00;;;;5075104;28;20204;-79
2023/07/30 01:16:14;;;;;;;1.10;1.00;;;22.60;81.10;22.10;96135.00;;;;5071108;28;20240;-79
2023/07/30 01:18:42;;;;;;;1.20;1.10;;;22.70;81.20;22.10;96126.00;;;;5075130;28;20209;-79
2023/07/30 01:21:10;;;;;;;1.00;1.00;;;22.60;81.10;22.10;96121.00;;;;5052811;28;20204;-79
2023/07/30 01:23:37;;;;;;;0.90;0.90;;;22.70;81.20;22.10;96127.00;;;;5067597;28;20192;-78
2023/07/30 01:26:11;;;;;;;1.20;1.10;;;22.60;81.10;22.10;96118.00;;;;5070468;28;20520;-79
2023/07/30 01:28:58;;;;;;;0.90;0.90;;;22.70;81.40;22.10;96123.00;;;;5053278;28;20203;-78
2023/07/30 01:31:28;;;;;;;0.80;0.80;;;22.60;81.30;22.10;96123.00;;;;5064129;28;20292;-79
2023/07/30 01:33:58;;;;;;;1.77;1.00;;;22.60;81.20;22.10;96131.00;;;;5073070;28;20200;-79
2023/07/30 01:36:29;;;;;;;0.87;0.87;;;22.60;81.30;22.10;96125.00;;;;5070465;28;20315;-79
2023/07/30 01:39:02;;;;;;;0.90;0.90;;;22.70;81.40;22.10;96123.00;;;;5063553;28;20200;-79
2023/07/30 01:41:29;;;;;;;1.93;1.20;;;22.60;81.30;22.10;96115.00;;;;5051778;28;20203;-79
2023/07/30 01:43:57;;;;;;;1.17;1.07;;;22.60;81.20;22.10;96117.00;;;;5054771;28;20196;-79
2023/07/30 01:46:24;;;;;;;1.00;1.00;;;22.60;81.20;22.00;96116.00;;;;5078030;28;20835;-80
2023/07/30 01:48:51;;;;;;;1.10;1.10;;;22.70;81.30;22.00;96117.00;;;;5077242;28;20207;-79
2023/07/30 01:51:18;;;;;;;1.10;0.90;;;22.70;81.30;22.00;96119.00;;;;5079254;28;20583;-79
2023/07/30 01:53:47;;;;;;;0.97;0.97;;;22.60;81.10;22.00;96113.00;;;;5053125;28;20204;-79
2023/07/30 01:56:14;;;;;;;1.27;1.17;;;22.60;81.20;22.00;96129.00;;;;5076410;28;20219;-79
2023/07/30 01:58:41;;;;;;;1.30;1.20;;;22.60;81.10;22.00;96118.00;;;;5068336;28;20200;-78
2023/07/30 02:01:08;;;;;;;1.27;1.13;;;22.60;81.10;22.00;96122.00;;;;5076841;28;20213;-79
2023/07/30 02:03:35;;;;;;;1.10;1.00;;;22.60;81.10;22.00;96129.00;;;;5081691;28;20205;-79
2023/07/30 02:06:02;;;;;;;2.60;1.00;;;22.60;81.10;22.00;96129.00;;;;5075291;28;20736;-79
2023/07/30 02:08:29;;;;;;;1.20;1.10;;;22.60;81.10;21.90;96124.00;;;;5073820;28;20198;-79
2023/07/30 02:10:59;;;;;;;1.00;0.90;;;22.50;81.10;21.90;96121.00;;;;5080436;28;20202;-79
2023/07/30 02:13:27;;;;;;;1.33;1.23;;;22.50;81.30;21.90;96119.00;;;;5073429;28;20206;-79
2023/07/30 02:15:54;;;;;;;1.20;1.10;;;22.60;81.40;21.90;96120.00;;;;5084485;28;20231;-78
2023/07/30 02:18:21;;;;;;;1.60;1.10;;;22.60;82.20;21.90;96121.00;;;;5065844;28;20588;-79
2023/07/30 02:20:49;;;;;;;1.00;0.97;;;22.50;81.20;21.90;96128.00;;;;5088060;28;20614;-79
2023/07/30 02:23:17;;;;;;;1.30;1.30;;;22.50;81.30;21.90;96125.00;;;;5075036;28;20264;-79
2023/07/30 02:25:44;;;;;;;1.37;1.27;;;22.50;81.40;21.90;96133.00;;;;5074105;28;20205;-79
2023/07/30 02:28:13;;;;;;;1.13;1.13;;;22.50;81.50;21.90;96135.00;;;;5073571;28;20198;-78
2023/07/30 02:30:40;;;;;;;1.50;1.40;;;22.50;81.60;21.90;96137.00;;;;5074063;28;20204;-79
2023/07/30 02:33:07;;;;;;;1.57;1.30;;;22.50;81.60;21.90;96146.00;;;;5073603;28;20665;-79
2023/07/30 02:35:34;;;;;;;1.20;1.10;;;22.50;81.70;21.90;96155.00;;;;5060751;28;20233;-79
2023/07/30 02:38:02;;;;;;;1.10;1.10;;;22.50;81.60;21.90;96155.00;;;;5056162;28;20199;-79
2023/07/30 02:40:29;;;;;;;1.10;1.00;;;22.50;81.60;21.90;96168.00;;;;5055513;28;20197;-78
2023/07/30 02:42:56;;;;;;;1.63;1.00;;;22.50;81.50;21.90;96151.00;;;;5072914;28;20205;-78
2023/07/30 02:45:24;;;;;;;2.23;1.20;;;22.50;81.50;21.90;96144.00;;;;5076712;28;20214;-79
2023/07/30 02:47:51;;;;;;;2.10;1.00;;;22.50;81.70;21.90;96145.00;;;;5071818;28;20220;-79
2023/07/30 02:50:19;;;;;;;1.43;1.33;;;22.50;81.80;21.80;96130.00;;;;5078871;28;20193;-79
2023/07/30 02:52:46;;;;;;;1.40;1.07;;;22.50;82.00;21.80;96128.00;;;;5071779;28;20230;-79
2023/07/30 02:55:13;;;;;;;1.30;1.20;;;22.40;81.90;21.80;96136.00;;;;5072632;28;20588;-79
2023/07/30 02:57:41;;;;;;;1.40;1.13;;;22.40;81.90;21.70;96127.00;;;;5071683;28;20671;-79
2023/07/30 03:00:09;;;;;;;1.20;0.90;;;22.40;81.90;21.70;96138.00;;;;5062534;28;20196;-79
2023/07/30 03:02:38;;;;;;;1.10;1.00;;;22.40;81.90;21.70;96134.00;;;;5069577;28;20197;-79
2023/07/30 03:05:06;;;;;;;0.93;0.83;;;22.30;81.90;21.60;96130.00;;;;5073743;28;20211;-79
2023/07/30 03:07:33;;;;;;;1.20;1.00;;;22.30;82.00;21.60;96147.00;;;;5055585;28;20349;-78
2023/07/30 03:10:00;;;;;;;2.53;1.10;;;22.30;82.10;21.60;96148.00;;;;5069601;28;20192;-79
2023/07/30 03:12:28;;;;;;;1.00;1.00;;;22.20;82.20;21.60;96148.00;;;;5053722;28;20657;-79
2023/07/30 03:14:55;;;;;;;1.07;0.97;;;22.30;82.40;21.60;96151.00;;;;5077703;28;20203;-79
2023/07/30 03:17:22;;;;;;;0.90;0.90;;;22.30;82.30;21.60;96156.00;;;;5070889;28;20223;-79
2023/07/30 03:19:51;;;;;;;0.87;0.87;;;22.20;82.30;21.60;96150.00;;;;5066553;28;20276;-79
2023/07/30 03:22:18;;;;;;;1.07;1.07;;;22.20;82.20;21.60;96151.00;;;;5079713;28;20196;-78
2023/07/30 03:24:47;;;;;;;1.23;1.10;;;22.20;82.10;21.60;96146.00;;;;5066364;28;20211;-79
2023/07/30 03:27:14;;;;;;;1.10;1.00;;;22.20;81.90;21.60;96135.00;;;;5065941;28;20227;-79
2023/07/30 03:29:42;;;;;;;0.73;0.73;;;22.20;81.80;21.60;96145.00;;;;5078564;28;20197;-78
2023/07/30 03:32:09;;;;;;;1.30;1.20;;;22.20;81.90;21.60;96159.00;;;;5078416;28;20747;-78
2023/07/30 03:34:36;;;;;;;1.20;1.10;;;22.20;82.70;21.60;96149.00;;;;5079537;28;20192;-78
2023/07/30 03:37:07;;;;;;;1.30;1.20;;;22.20;81.80;21.50;96137.00;;;;5081345;28;20227;-79
2023/07/30 03:39:34;;;;;;;1.23;0.83;;;22.20;81.70;21.50;96134.00;;;;5072821;28;20205;-78
2023/07/30 03:42:01;;;;;;;1.37;1.27;;;22.10;81.80;21.50;96138.00;;;;5071853;28;20200;-79
2023/07/30 03:44:28;;;;;;;1.07;1.00;;;22.10;81.70;21.50;96137.00;;;;5067613;28;20200;-78
2023/07/30 03:46:55;;;;;;;1.13;1.03;;;22.10;81.40;21.50;96140.00;;;;5050917;28;20231;-78
2023/07/30 03:49:22;;;;;;;0.97;0.87;;;22.10;81.20;21.40;96143.00;;;;5070782;28;20282;-78
2023/07/30 03:51:49;;;;;;;1.00;1.00;;;22.10;81.40;21.40;96140.00;;;;5064104;28;20873;-79
2023/07/30 03:54:18;;;;;;;3.17;0.97;;;22.10;82.30;21.40;96135.00;;;;5065228;28;20665;-78
2023/07/30 03:56:45;;;;;;;1.07;1.07;;;22.00;81.60;21.40;96136.00;;;;5066190;28;20617;-79
2023/07/30 03:59:13;;;;;;;1.20;1.10;;;22.00;81.40;21.40;96130.00;;;;5065983;28;20216;-78
2023/07/30 04:01:40;;;;;;;1.10;1.07;;;22.00;81.80;21.30;96136.00;;;;5053228;28;20204;-78
2023/07/30 04:04:07;;;;;;;1.13;1.03;;;22.00;80.90;21.30;96131.00;;;;5069864;28;20721;-79
2023/07/30 04:06:34;;;;;;;1.93;1.00;;;21.90;80.70;21.30;96135.00;;;;5061651;28;20310;-78
2023/07/30 04:09:02;;;;;;;2.10;0.90;;;21.90;80.70;21.30;96128.00;;;;5054109;28;20287;-78
2023/07/30 04:11:30;;;;;;;1.10;1.10;;;21.90;80.70;21.20;96141.00;;;;5053922;28;20227;-78
2023/07/30 04:13:57;;;;;;;1.10;1.00;;;21.90;80.80;21.20;96153.00;;;;5071519;28;20203;-79
2023/07/30 04:16:25;;;;;;;1.10;1.00;;;21.80;80.90;21.20;96148.00;;;;5066344;28;20227;-78
2023/07/30 04:18:52;;;;;;;1.20;1.10;;;21.80;81.20;21.20;96151.00;;;;5071355;28;20196;-78
2023/07/30 04:21:19;;;;;;;0.87;0.87;;;21.80;82.00;21.10;96158.00;;;;5071718;28;20187;-79
2023/07/30 04:23:46;;;;;;;1.23;1.13;;;21.80;81.10;21.10;96164.00;;;;5063236;28;20195;-78
2023/07/30 04:26:13;;;;;;;4.40;1.13;;;21.70;80.80;21.10;96167.00;;;;5070014;28;20219;-78
2023/07/30 04:28:42;;;;;;;1.17;1.07;;;21.70;80.80;21.10;96168.00;;;;5071844;28;20199;-78
2023/07/30 04:31:09;;;;;;;1.53;1.00;;;21.70;80.70;21.00;96168.00;;;;5071436;28;20295;-78
2023/07/30 04:33:36;;;;;;;1.10;1.00;;;21.70;80.80;21.00;96165.00;;;;5070040;28;20210;-78
2023/07/30 04:36:04;;;;;;;0.93;0.93;;;21.70;81.10;21.00;96173.00;;;;5069988;28;20223;-78
2023/07/30 04:38:31;;;;;;;1.80;1.23;;;21.70;81.90;21.00;96171.00;;;;5069368;28;20582;-79
2023/07/30 04:40:59;;;;;;;1.17;1.07;;;21.60;81.10;21.00;96175.00;;;;5052385;28;20567;-79
2023/07/30 04:43:26;;;;;;;1.07;1.07;;;21.60;81.30;21.00;96166.00;;;;5069563;28;20226;-79
2023/07/30 04:45:54;;;;;;;1.50;1.00;;;21.60;81.50;21.00;96171.00;;;;5077580;28;20223;-79
2023/07/30 04:48:21;;;;;;;1.17;1.17;;;21.60;81.60;21.00;96171.00;;;;5078367;28;20746;-79
2023/07/30 04:50:49;;;;;;;1.23;1.13;;;21.60;81.40;21.00;96175.00;;;;5066380;28;20246;-79
2023/07/30 04:53:18;;;;;;;1.03;1.00;;;21.60;81.40;21.00;96180.00;;;;5069665;28;20199;-78
2023/07/30 04:55:45;;;;;;;1.40;1.17;;;21.60;81.60;21.00;96184.00;;;;5071654;28;20195;-82
2023/07/30 04:58:12;;;;;;;1.00;1.00;;;21.60;81.70;21.00;96197.00;;;;5076356;28;20319;-81
2023/07/30 05:00:40;;;;;;;1.20;1.20;;;21.60;81.70;21.00;96201.00;;;;5072494;28;20575;-81
2023/07/30 05:03:10;;;;;;;1.23;1.13;;;21.60;81.70;21.00;96194.00;;;;5074838;28;20200;-82
2023/07/30 05:05:37;;;;;;;1.17;1.17;;;21.60;81.80;21.00;96197.00;;;;5055461;28;20196;-81
2023/07/30 05:08:05;;;;;;;1.10;1.10;;;21.60;81.80;21.10;96195.00;;;;5073393;28;20264;-81
2023/07/30 05:10:32;;;;;;;4.40;1.50;;;21.70;82.00;21.10;96200.00;;;;5077936;28;20639;-81
2023/07/30 05:12:59;;;;;;;1.30;1.20;;;21.70;82.10;21.10;96200.00;;;;5058660;28;20192;-81
2023/07/30 05:15:27;;;;;;;1.80;1.30;;;21.70;82.20;21.10;96206.00;;;;5075002;28;20283;-80
2023/07/30 05:17:55;;;;;;;1.30;1.20;;;21.70;82.40;21.10;96203.00;;;;5065573;28;20262;-84
2023/07/30 05:20:24;;;;;;;1.70;1.30;;;21.70;82.50;21.20;96206.00;;;;5065157;28;20222;-81
2023/07/30 05:22:51;;;;;;;1.20;1.10;;;21.70;82.70;21.20;96198.00;;;;5061304;28;20234;-83
2023/07/30 05:25:18;;;;;;;2.03;1.10;;;21.70;82.70;21.20;96206.00;;;;5094333;28;20192;-81
2023/07/30 05:27:46;;;;;;;1.30;1.20;;;21.70;82.90;21.20;96211.00;;;;5075130;28;20564;-81
2023/07/30 05:30:13;;;;;;;1.40;1.30;;;21.80;82.90;21.30;96205.00;;;;5078054;28;20191;-83
2023/07/30 05:32:40;;;;;;;1.30;1.20;;;21.80;83.00;21.30;96209.00;;;;5076441;28;20202;-82
2023/07/30 05:35:08;;;;;;;1.93;0.90;;;21.80;83.80;21.30;96217.00;;;;5083837;28;20223;-83
2023/07/30 05:37:37;;;;;;;1.40;1.30;;;21.80;83.20;21.40;96215.00;;;;5058523;28;20740;-81
2023/07/30 05:40:06;;;;;;;1.43;1.30;;;21.90;83.30;21.40;96210.00;;;;5075813;28;20198;-81
2023/07/30 05:42:35;;;;;;;1.37;1.30;;;21.90;83.20;21.40;96228.00;;;;5080400;28;20206;-83
2023/07/30 05:45:02;;;;;;;2.23;1.33;;;21.90;83.20;21.40;96230.00;;;;5080808;28;20198;-82
2023/07/30 05:47:29;;;;;;;1.80;1.17;;;21.90;83.20;21.50;96230.00;;;;5081090;28;20223;-82
2023/07/30 05:49:56;;;;;;;1.40;1.30;;;22.00;83.30;21.50;96222.00;;;;5076934;28;20200;-83
2023/07/30 05:52:23;;;;;;;1.20;1.10;;;22.00;83.40;21.60;96237.00;;;;5058813;28;20283;-84
2023/07/30 05:54:52;;;;;;;2.53;1.20;;;22.10;83.60;21.60;96238.00;;;;5076247;28;20204;-82
2023/07/30 05:57:19;;;;;;;1.33;1.23;;;22.10;83.80;21.70;96247.00;;;;5083933;28;20216;-81
2023/07/30 05:59:46;;;;;;;1.90;1.47;;;22.10;83.90;21.70;96240.00;;;;5084572;28;20255;-84
2023/07/30 06:02:14;;;;;;;1.23;1.10;;;22.20;84.10;21.80;96222.00;;;;5068145;28;20245;-85
2023/07/30 06:04:41;;;;;;;1.30;1.20;;;22.20;84.20;21.80;96233.00;;;;5079090;28;20194;-83
2023/07/30 06:07:08;;;;;;;1.03;1.03;;;22.30;84.30;21.90;96230.00;;;;5086641;28;20310;-84
2023/07/30 06:09:35;;;;;;;1.40;1.30;;;22.30;83.90;22.00;96231.00;;;;5085280;28;20814;-84
2023/07/30 06:12:04;;;;;;;1.50;1.40;;;22.40;83.80;22.00;96237.00;;;;5082409;28;20287;-84
2023/07/30 06:14:31;;;;;;;1.20;1.10;;;22.50;83.80;22.10;96236.00;;;;5069235;28;20298;-83
2023/07/30 06:16:59;;;;;;;1.17;1.07;;;22.50;83.50;22.20;96244.00;;;;5068801;28;20252;-83
2023/07/30 06:19:26;;;;;;;1.20;1.20;;;22.50;83.20;22.20;96237.00;;;;5075397;28;20544;-83
2023/07/30 06:21:53;;;;;;;1.93;1.33;;;22.60;83.30;22.30;96234.00;;;;5074024;28;20280;-81
2023/07/30 06:24:21;;;;;;;1.20;1.10;;;22.70;83.20;22.30;96236.00;;;;5055378;28;20195;-83
2023/07/30 06:26:48;;;;;;;1.33;1.23;;;22.70;82.90;22.30;96237.00;;;;5064317;28;20285;-83
2023/07/30 06:29:17;;;;;;;1.23;1.13;;;22.70;82.80;22.40;96233.00;;;;5054043;28;20194;-83
2023/07/30 06:31:44;;;;;;;1.40;1.30;;;22.80;82.80;22.40;96240.00;;;;5051578;28;20567;-84
2023/07/30 06:34:11;;;;;;;1.93;1.40;;;22.80;82.60;22.50;96246.00;;;;5081258;28;20232;-82
2023/07/30 06:36:39;;;;;;;1.10;1.10;;;22.90;82.80;22.50;96237.00;;;;5095585;28;20587;-84
2023/07/30 06:39:06;;;;;;;1.43;1.30;;;22.90;82.80;22.60;96241.00;;;;5076180;28;20671;-83
2023/07/30 06:41:33;;;;;;;1.13;1.03;;;23.00;82.90;22.60;96242.00;;;;5051500;28;20208;-84
2023/07/30 06:44:00;;;;;;;1.37;1.27;;;23.00;82.70;22.70;96237.00;;;;5078304;28;20209;-84
2023/07/30 06:46:28;;;;;;;1.27;1.17;;;23.10;82.60;22.70;96238.00;;;;5075950;28;20715;-83
2023/07/30 06:48:57;;;;;;;2.60;1.37;;;23.10;82.20;22.70;96245.00;;;;5074888;28;20204;-84
2023/07/30 06:51:26;;;;;;;1.40;1.30;;;23.20;81.80;22.80;96244.00;;;;5089031;28;20198;-83
2023/07/30 06:53:54;;;;;;;1.10;1.00;;;23.20;81.60;22.80;96245.00;;;;5059568;28;20431;-83
2023/07/30 06:56:21;;;;;;;1.10;1.10;;;23.20;81.20;22.80;96239.00;;;;5075180;28;20310;-84
2023/07/30 06:58:48;;;;;;;1.37;1.27;;;23.30;81.10;22.80;96248.00;;;;5073071;28;20311;-84
2023/07/30 07:01:16;;;;;;;1.30;1.20;;;23.30;81.00;22.90;96248.00;;;;5064596;28;20216;-85
2023/07/30 07:03:44;;;;;;;1.13;1.10;;;23.30;80.80;22.90;96257.00;;;;5050948;28;20281;-84
2023/07/30 07:06:12;;;;;;;1.27;1.17;;;23.30;80.20;22.90;96259.00;;;;5063066;28;20227;-83
2023/07/30 07:08:39;;;;;;;1.10;1.10;;;23.30;80.60;22.90;96258.00;;;;5053915;28;20206;-83
2023/07/30 07:11:07;;;;;;;1.27;1.17;;;23.30;80.50;23.00;96252.00;;;;5074165;28;20210;-85
2023/07/30 07:13:34;;;;;;;2.07;1.50;;;23.40;80.70;23.00;96263.00;;;;5079030;28;20281;-84
2023/07/30 07:16:01;;;;;;;1.20;1.10;;;23.40;80.70;23.00;96265.00;;;;5074856;28;20220;-84
2023/07/30 07:18:28;;;;;;;1.10;1.10;;;23.40;80.90;23.10;96263.00;;;;5055964;28;20223;-84
2023/07/30 07:20:57;;;;;;;1.10;1.10;;;23.50;81.20;23.20;96267.00;;;;5077803;28;20220;-85
2023/07/30 07:23:24;;;;;;;0.90;0.90;;;23.50;81.20;23.20;96257.00;;;;5073797;28;20200;-84
2023/07/30 07:25:52;;;;;;;1.10;1.10;;;23.60;81.60;23.30;96259.00;;;;5076453;28;20225;-84
2023/07/30 07:28:20;;;;;;;1.67;1.53;;;23.70;81.90;23.40;96267.00;;;;5084304;28;20196;-85
2023/07/30 07:30:47;;;;;;;1.93;1.10;;;23.80;82.00;23.50;96263.00;;;;5074358;28;20206;-85
2023/07/30 07:33:15;;;;;;;1.13;1.00;;;23.80;81.70;23.60;96262.00;;;;5063445;28;20207;-84
2023/07/30 07:35:42;;;;;;;1.10;1.10;;;23.90;81.20;23.70;96262.00;;;;5055043;28;20206;-85
2023/07/30 07:38:11;;;;;;;1.30;1.20;;;24.00;81.10;23.80;96256.00;;;;5064147;28;20312;-85
2023/07/30 07:40:40;;;;;;;1.00;0.90;;;24.10;81.00;23.90;96260.00;;;;5074030;28;20279;-85
2023/07/30 07:43:08;;;;;;;1.40;1.30;;;24.20;80.70;24.00;96258.00;;;;5069168;28;20192;-86
2023/07/30 07:45:37;;;;;;;1.20;1.10;;;24.30;80.30;24.10;96262.00;;;;5051183;28;20283;-87
2023/07/30 07:48:04;;;;;;;1.00;1.00;;;24.40;80.10;24.20;96269.00;;;;5078672;28;20234;-85
2023/07/30 07:50:31;;;;;;;1.43;0.97;;;24.50;79.60;24.30;96267.00;;;;5068735;28;20242;-85
2023/07/30 07:52:58;;;;;;;1.00;1.00;;;24.60;79.10;24.40;96266.00;;;;5055643;28;20204;-81
2023/07/30 07:55:27;;;;;;;0.90;0.90;;;24.70;78.30;24.40;96259.00;;;;5071935;28;20192;-83
2023/07/30 07:57:54;;;;;;;1.33;0.80;;;24.80;77.80;24.50;96270.00;;;;5072607;28;20310;-83
2023/07/30 08:00:21;;;;;;;1.40;1.10;;;24.80;78.20;24.60;96268.00;;;;5073137;28;20218;-83
2023/07/30 08:02:51;;;;;;;1.40;1.20;;;24.90;78.00;24.60;96269.00;;;;5088706;28;20229;-83
2023/07/30 08:05:19;;;;;;;0.90;0.90;;;25.00;76.80;24.60;96267.00;;;;5076338;28;20215;-84
2023/07/30 08:07:47;;;;;;;1.23;1.13;;;25.00;76.20;24.60;96268.00;;;;5072588;28;20306;-84
2023/07/30 08:10:14;;;;;;;1.20;1.10;;;25.10;76.50;24.60;96271.00;;;;5055781;28;20287;-83
2023/07/30 08:12:43;;;;;;;0.97;0.93;;;25.10;76.30;24.60;96273.00;;;;5073294;28;20227;-83
2023/07/30 08:15:11;;;;;;;1.10;1.10;;;25.10;76.30;24.70;96270.00;;;;5066596;28;20196;-83
2023/07/30 08:17:38;;;;;;;1.37;0.90;;;25.10;76.20;24.70;96276.00;;;;5072783;28;20257;-84
2023/07/30 08:20:07;;;;;;;1.23;1.17;;;25.10;76.30;24.80;96276.00;;;;5074063;28;20188;-84
2023/07/30 08:22:34;;;;;;;2.00;1.00;;;25.10;76.10;24.80;96282.00;;;;5081313;28;20282;-83
2023/07/30 08:25:03;;;;;;;1.17;1.07;;;25.20;76.10;24.80;96269.00;;;;5070784;28;20206;-84
2023/07/30 08:27:30;;;;;;;1.27;1.00;;;25.20;75.10;24.90;96268.00;;;;5062830;28;20273;-84
2023/07/30 08:29:58;;;;;;;0.80;0.80;;;25.20;74.80;24.90;96269.00;;;;5070022;28;20200;-84
2023/07/30 08:32:26;;;;;;;1.30;1.20;;;25.30;75.20;25.00;96271.00;;;;5071147;28;20192;-84
2023/07/30 08:34:53;;;;;;;1.10;1.00;;;25.30;75.40;25.00;96271.00;;;;5053480;28;20199;-83
2023/07/30 08:37:20;;;;;;;1.10;1.00;;;25.40;75.70;25.10;96267.00;;;;5049200;28;20212;-84
2023/07/30 08:39:48;;;;;;;1.00;0.83;;;25.40;75.30;25.10;96270.00;;;;5072089;28;20283;-84
2023/07/30 08:42:15;;;;;;;1.10;1.10;;;25.50;75.20;25.20;96264.00;;;;5049752;28;20658;-84
2023/07/30 08:44:42;;;;;;;1.80;0.93;;;25.50;75.10;25.30;96262.00;;;;5077023;28;20198;-84
2023/07/30 08:47:11;;;;;;;0.80;0.80;;;25.60;75.40;25.40;96259.00;;;;5084754;28;20309;-84
2023/07/30 08:49:39;;;;;;;1.00;1.00;;;25.70;74.30;25.50;96262.00;;;;5075092;28;20212;-84
2023/07/30 08:52:10;;;;;;;1.47;1.07;;;25.80;74.70;25.70;96262.00;;;;5082010;28;20274;-83
2023/07/30 08:54:39;;;;;;;1.20;1.20;;;25.90;73.80;25.80;96256.00;;;;5063750;28;20192;-85
2023/07/30 08:57:08;;;;;;;1.10;1.00;;;26.00;74.30;26.00;96248.00;;;;5072129;28;20246;-84
2023/07/30 08:59:46;;;;;;;0.90;0.90;;;26.20;74.00;26.10;96249.00;;;;5069892;28;20241;-85
2023/07/30 09:02:25;;;;;;;1.20;0.90;;;26.30;72.40;26.20;96253.00;;;;5071201;28;20191;-85
2023/07/30 09:04:59;;;;;;;1.13;1.03;;;26.50;72.00;26.30;96245.00;;;;5051451;28;20192;-85
2023/07/30 09:07:26;;;;;;;0.95;0.95;;;26.60;71.40;26.50;96238.00;;;;5071852;28;20216;-84
2023/07/30 09:09:54;;;;;;;1.63;0.80;;;26.70;72.10;26.60;96231.00;;;;5080933;28;20200;-85
2023/07/30 09:12:27;;;;;;;0.90;0.90;;;26.80;71.00;26.70;96230.00;;;;5059503;28;20188;-85
2023/07/30 09:14:54;;;;;;;0.90;0.90;;;26.90;71.40;26.80;96240.00;;;;5065927;28;20278;-85
2023/07/30 09:17:23;;;;;;;1.25;1.25;;;27.00;70.10;26.90;96222.00;;;;5078532;28;20226;-83
2023/07/30 09:19:51;;;;;;;1.05;1.05;;;27.10;70.50;27.00;96223.00;;;;5061771;28;20274;-83
2023/07/30 09:22:25;;;;;;;0.95;0.95;;;27.20;69.20;27.00;96228.00;;;;5068019;28;20188;-84
2023/07/30 09:24:52;;;;;;;1.23;1.13;;;27.30;68.80;27.10;96231.00;;;;5062912;28;20188;-84
2023/07/30 09:27:25;;;;;;;1.20;0.85;;;27.30;69.00;27.10;96235.00;;;;5062585;28;20242;-84
2023/07/30 09:29:54;;;;;;;1.02;1.02;;;27.40;68.40;27.10;96231.00;;;;5048937;28;20227;-84
2023/07/30 09:32:27;;;;;;;0.65;0.65;;;27.40;67.40;27.10;96223.00;;;;5063883;28;20207;-84
2023/07/30 09:34:55;;;;;;;1.10;1.00;;;27.40;66.20;27.20;96230.00;;;;5067889;28;20284;-84
2023/07/30 09:37:23;;;;;;;0.85;0.85;;;27.50;68.20;27.30;96219.00;;;;5063808;28;20222;-83
2023/07/30 09:39:50;;;;;;;1.10;1.00;;;27.60;67.10;27.30;96222.00;;;;5060697;28;20232;-84
2023/07/30 09:42:17;;;;;;;1.00;1.00;;;27.60;66.60;27.30;96219.00;;;;5031987;28;20295;-84
2023/07/30 09:44:48;;;;;;;1.20;1.00;;;27.60;65.90;27.30;96223.00;;;;5046616;28;20188;-84
2023/07/30 09:47:16;;;;;;;0.70;0.70;;;27.60;66.00;27.30;96219.00;;;;5072671;28;20216;-84
2023/07/30 09:49:45;;;;;;;1.10;0.90;;;27.70;67.00;27.40;96229.00;;;;5062454;28;20211;-85
2023/07/30 09:52:16;;;;;;;1.50;0.82;;;27.80;67.20;27.60;96212.00;;;;5064973;28;20665;-85
2023/07/30 09:54:43;;;;;;;0.80;0.80;;;27.90;67.30;27.70;96209.00;;;;5061406;28;20213;-84
2023/07/30 09:57:11;;;;;;;1.63;1.02;;;28.10;66.70;27.90;96213.00;;;;5047258;28;20220;-85
2023/07/30 09:59:39;;;;;;;0.70;0.70;;;28.30;65.90;28.00;96214.00;;;;5064266;28;20216;-84
2023/07/30 10:02:09;;;;;;;0.80;0.80;;;28.40;66.60;28.10;96217.00;;;;5056756;28;20231;-85
2023/07/30 10:04:45;;;;;;;3.53;0.88;;;28.60;64.20;28.20;96216.00;;;;5062522;28;20212;-85
2023/07/30 10:07:19;;;;;;;0.80;0.80;;;28.70;62.70;28.30;96222.00;;;;5064193;28;20217;-84
2023/07/30 10:09:51;;;;;;;1.30;0.80;;;28.80;62.80;28.40;96217.00;;;;5066037;28;20278;-84
2023/07/30 10:12:24;;;;;;;0.80;0.80;;;28.90;62.00;28.40;96223.00;;;;5066182;28;20199;-82
2023/07/30 10:14:51;;;;;;;1.65;1.10;;;29.00;61.20;28.50;96227.00;;;;5066912;28;20290;-83
2023/07/30 10:17:19;;;;;;;1.23;0.70;;;29.10;60.70;28.50;96221.00;;;;5070029;28;20234;-84
2023/07/30 10:19:50;;;;;;;0.90;0.90;;;29.10;59.70;28.60;96219.00;;;;5052066;28;20216;-85
2023/07/30 10:22:25;;;;;;;0.85;0.75;;;29.10;59.90;28.70;96216.00;;;;5070424;28;20198;-85
2023/07/30 10:25:00;;;;;;;1.17;0.80;;;29.20;61.60;28.90;96209.00;;;;5069481;28;20195;-83
2023/07/30 10:27:37;;;;;;;1.00;0.90;;;29.30;60.30;29.00;96219.00;;;;5050027;28;20219;-84
2023/07/30 10:30:14;;;;;;;0.80;0.80;;;29.50;60.20;29.10;96219.00;;;;5066081;28;20200;-82
2023/07/30 10:32:43;;;;;;;0.70;0.70;;;29.60;58.40;29.20;96217.00;;;;5050158;28;20282;-85
2023/07/30 10:35:39;;;;;;;1.15;1.08;;;29.70;58.50;29.30;96220.00;;;;5042055;28;20200;-83
2023/07/30 10:38:24;;;;;;;1.48;0.82;;;29.90;56.70;29.40;96229.00;;;;5070108;28;20283;-84
2023/07/30 10:41:08;;;;;;;0.73;0.73;;;30.00;56.70;29.50;96223.00;;;;5065048;28;20254;-84
2023/07/30 10:43:41;;;;;;;1.00;0.70;;;30.10;55.90;29.50;96221.00;;;;5066578;28;20221;-84
2023/07/30 10:46:09;;;;;;;1.77;0.88;;;30.10;56.00;29.50;96221.00;;;;5029391;28;21634;-84
2023/07/30 10:48:39;;;;;;;1.27;1.02;;;30.10;56.80;29.50;96231.00;;;;5069297;28;20689;-84
2023/07/30 10:51:12;;;;;;;0.80;0.80;;;30.10;56.30;29.60;96232.00;;;;5066862;28;20290;-84
2023/07/30 10:53:39;;;;;;;0.90;0.90;;;30.10;56.00;29.60;96229.00;;;;5052579;28;20210;-82
2023/07/30 10:56:10;;;;;;;0.82;0.82;;;30.10;55.60;29.60;96208.00;;;;5068410;28;21220;-84
2023/07/30 10:58:38;;;;;;;9.63;1.30;;;30.10;55.50;29.70;96218.00;;;;5067747;28;20227;-85
2023/07/30 11:01:06;;;;;;;0.90;0.90;;;30.10;56.10;29.70;96223.00;;;;5067106;28;20204;-86